Time;durP1;ratioP1;P1;durP2;ratioP2;P2;SDS_P1;SDS_P2;PMS_P1;PMS_P2;Temp;Humidity;BMP_temperature;BMP_pressure;BME280_temperature;BME280_humidity;BME280_pressure;Samples;Min_cycle;Max_cycle;Signal;HPM_P1;HPM_P2
2022/04/11 00:02:32;;;;;;;4.32;2.33;;;5.10;66.50;;;;;;9188594;19;20018;-61
2022/04/11 00:05:40;;;;;;;6.07;1.90;;;5.10;66.60;;;;;;9187174;19;20025;-61
2022/04/11 00:08:45;;;;;;;8.43;2.22;;;5.10;66.70;;;;;;9184685;19;20645;-61
2022/04/11 00:11:50;;;;;;;3.58;1.77;;;5.10;66.70;;;;;;9187144;19;20062;-61
2022/04/11 00:14:58;;;;;;;9.27;2.13;;;5.00;66.70;;;;;;9187942;19;20038;-61
2022/04/11 00:18:03;;;;;;;5.13;2.22;;;5.00;66.80;;;;;;9186917;19;20495;-62
2022/04/11 00:21:11;;;;;;;4.78;2.22;;;5.00;66.80;;;;;;9186115;19;20018;-63
2022/04/11 00:24:16;;;;;;;9.70;2.47;;;4.90;66.80;;;;;;9186290;19;20021;-60
2022/04/11 00:27:21;;;;;;;6.90;2.50;;;4.90;66.80;;;;;;9186498;19;20018;-61
2022/04/11 00:30:26;;;;;;;8.75;2.75;;;4.90;66.90;;;;;;9187629;19;20074;-62
2022/04/11 00:33:31;;;;;;;5.18;2.60;;;4.90;66.90;;;;;;9187243;19;20037;-61
2022/04/11 00:36:39;;;;;;;8.02;3.10;;;4.90;67.10;;;;;;9183665;19;20039;-62
2022/04/11 00:39:44;;;;;;;10.90;3.22;;;4.80;67.00;;;;;;9186744;19;20025;-64
2022/04/11 00:42:51;;;;;;;5.70;2.97;;;4.80;67.10;;;;;;9184926;19;20475;-64
2022/04/11 00:45:56;;;;;;;5.45;2.58;;;4.80;67.20;;;;;;9184844;19;20486;-61
2022/04/11 00:49:01;;;;;;;5.80;2.58;;;4.80;67.20;;;;;;9181635;19;20021;-60
2022/04/11 00:52:09;;;;;;;9.98;2.83;;;4.70;67.10;;;;;;9183045;19;20081;-61
2022/04/11 00:55:16;;;;;;;9.88;2.90;;;4.70;67.20;;;;;;9183425;19;20019;-61
2022/04/11 00:58:21;;;;;;;11.63;3.63;;;4.70;67.30;;;;;;9184912;19;20022;-62
2022/04/11 01:01:26;;;;;;;12.68;2.95;;;4.70;67.40;;;;;;9183664;19;20018;-61
2022/04/11 01:04:31;;;;;;;10.38;3.00;;;4.70;67.40;;;;;;9184572;19;20022;-60
2022/04/11 01:07:43;;;;;;;7.95;2.97;;;4.70;67.50;;;;;;9183689;19;20479;-61
2022/04/11 01:10:48;;;;;;;9.73;3.17;;;4.70;67.60;;;;;;9183984;19;20051;-62
2022/04/11 01:13:53;;;;;;;6.10;2.92;;;4.70;67.60;;;;;;9185105;19;20022;-62
2022/04/11 01:16:59;;;;;;;7.30;3.20;;;4.70;67.60;;;;;;9183675;19;20014;-61
2022/04/11 01:20:09;;;;;;;5.47;3.00;;;4.70;67.60;;;;;;9183748;19;20587;-61
2022/04/11 01:23:17;;;;;;;13.10;3.40;;;4.70;67.70;;;;;;9184280;19;20006;-63
2022/04/11 01:26:24;;;;;;;6.88;2.80;;;4.70;67.70;;;;;;9183540;19;20025;-61
2022/04/11 01:29:30;;;;;;;6.30;3.00;;;4.70;67.80;;;;;;9184196;19;20023;-62
2022/04/11 01:32:36;;;;;;;8.50;3.63;;;4.70;67.80;;;;;;9183737;19;20019;-61
2022/04/11 01:35:41;;;;;;;5.50;3.33;;;4.80;67.90;;;;;;9181171;19;20014;-62
2022/04/11 01:38:49;;;;;;;9.32;3.47;;;4.80;67.90;;;;;;9182926;19;20018;-62
2022/04/11 01:41:54;;;;;;;10.00;3.67;;;4.80;67.90;;;;;;9184850;19;20029;-62
2022/04/11 01:44:59;;;;;;;8.80;3.33;;;4.80;68.00;;;;;;9181581;19;20014;-61
2022/04/11 01:48:04;;;;;;;9.32;2.97;;;4.80;68.00;;;;;;9180974;19;20019;-63
2022/04/11 01:51:09;;;;;;;7.35;3.03;;;4.80;68.00;;;;;;9184797;19;20104;-62
2022/04/11 01:54:17;;;;;;;6.72;2.97;;;4.80;68.00;;;;;;9180525;19;20026;-61
2022/04/11 01:57:22;;;;;;;8.48;3.78;;;4.80;68.00;;;;;;9182847;19;20018;-60
2022/04/11 02:00:27;;;;;;;5.90;3.00;;;4.80;68.00;;;;;;9181109;19;20367;-61
2022/04/11 02:03:32;;;;;;;5.32;2.92;;;4.80;68.10;;;;;;9181070;19;20014;-61
2022/04/11 02:06:37;;;;;;;6.82;3.45;;;4.80;68.10;;;;;;9181738;19;20017;-63
2022/04/11 02:09:46;;;;;;;4.90;2.63;;;4.80;68.10;;;;;;9179164;19;20436;-60
2022/04/11 02:12:51;;;;;;;6.65;2.88;;;4.80;68.20;;;;;;9181345;19;20010;-61
2022/04/11 02:15:59;;;;;;;8.40;3.35;;;4.80;67.90;;;;;;9181831;19;20030;-60
2022/04/11 02:19:04;;;;;;;8.75;3.40;;;4.80;68.30;;;;;;9182457;19;20373;-61
2022/04/11 02:22:09;;;;;;;8.95;3.28;;;4.80;68.30;;;;;;9181568;19;20019;-60
2022/04/11 02:25:18;;;;;;;6.22;3.40;;;4.80;68.30;;;;;;9181401;19;20014;-61
2022/04/11 02:28:24;;;;;;;11.10;2.78;;;4.80;68.30;;;;;;9180347;19;20019;-62
2022/04/11 02:31:30;;;;;;;9.07;3.42;;;4.70;68.30;;;;;;9181725;19;20507;-62
2022/04/11 02:34:35;;;;;;;7.75;2.95;;;4.70;68.30;;;;;;9180077;19;20044;-62
2022/04/11 02:37:40;;;;;;;14.32;3.15;;;4.70;68.40;;;;;;9178293;19;20018;-62
2022/04/11 02:40:48;;;;;;;4.30;2.60;;;4.70;68.50;;;;;;9182837;19;20100;-62
2022/04/11 02:43:59;;;;;;;7.80;3.30;;;4.70;68.50;;;;;;9180095;19;20070;-61
2022/04/11 02:47:05;;;;;;;9.02;3.30;;;4.60;68.40;;;;;;9182368;19;20535;-60
2022/04/11 02:50:12;;;;;;;5.82;2.97;;;4.60;68.50;;;;;;9179069;19;20007;-60
2022/04/11 02:53:37;;;;;;;4.95;2.63;;;4.60;68.50;;;;;;9179349;19;20598;-63
2022/04/11 02:56:45;;;;;;;8.57;3.00;;;4.60;68.50;;;;;;9180568;19;20865;-61
2022/04/11 02:59:50;;;;;;;8.93;3.00;;;4.60;68.60;;;;;;9181440;19;20512;-61
2022/04/11 03:02:55;;;;;;;4.65;3.03;;;4.60;68.60;;;;;;9178826;19;20479;-62
2022/04/11 03:06:03;;;;;;;12.52;3.85;;;4.60;68.70;;;;;;9180495;19;20043;-63
2022/04/11 03:09:09;;;;;;;9.50;2.85;;;4.60;68.70;;;;;;9186094;19;20022;-61
2022/04/11 03:12:17;;;;;;;12.68;3.20;;;4.60;68.80;;;;;;9188876;19;20480;-62
2022/04/11 03:15:23;;;;;;;8.85;3.40;;;4.60;68.80;;;;;;9189123;19;20118;-62
2022/04/11 03:18:28;;;;;;;7.55;3.00;;;4.60;68.80;;;;;;9188904;19;20022;-62
2022/04/11 03:21:34;;;;;;;11.50;3.22;;;4.50;68.80;;;;;;9189290;19;20017;-60
2022/04/11 03:24:47;;;;;;;9.53;3.17;;;4.60;68.90;;;;;;9189006;19;20018;-61
2022/04/11 03:27:55;;;;;;;11.05;3.28;;;4.50;68.80;;;;;;9188639;19;20846;-61
2022/04/11 03:31:05;;;;;;;7.75;3.20;;;4.50;68.90;;;;;;9184739;19;20010;-61
2022/04/11 03:34:10;;;;;;;8.10;3.28;;;4.50;68.90;;;;;;9188527;19;20021;-60
2022/04/11 03:37:16;;;;;;;7.65;3.58;;;4.50;68.90;;;;;;9185887;19;20351;-61
2022/04/11 03:40:32;;;;;;;5.47;3.17;;;4.50;68.90;;;;;;9185218;19;20014;-62
2022/04/11 03:43:44;;;;;;;11.73;3.88;;;4.50;68.90;;;;;;9188659;19;20026;-60
2022/04/11 03:46:49;;;;;;;11.48;3.72;;;4.50;69.00;;;;;;9187710;19;20359;-63
2022/04/11 03:49:59;;;;;;;8.55;3.92;;;4.50;69.00;;;;;;9185468;19;20021;-63
2022/04/11 03:53:10;;;;;;;9.27;3.58;;;4.40;68.90;;;;;;9187654;19;20017;-62
2022/04/11 03:56:18;;;;;;;9.77;3.67;;;4.40;69.00;;;;;;9188006;19;20026;-61
2022/04/11 03:59:26;;;;;;;6.97;3.65;;;4.40;69.00;;;;;;9188053;19;20390;-60
2022/04/11 04:02:31;;;;;;;8.63;3.95;;;4.40;69.10;;;;;;9187964;19;20021;-63
2022/04/11 04:05:41;;;;;;;11.55;3.78;;;4.40;69.10;;;;;;9187648;19;20459;-65
2022/04/11 04:08:47;;;;;;;9.95;3.92;;;4.40;69.10;;;;;;9184770;19;20034;-63
2022/04/11 04:11:55;;;;;;;8.52;3.72;;;4.40;69.10;;;;;;9186269;19;20022;-61
2022/04/11 04:15:20;;;;;;;9.88;4.90;;;4.30;69.20;;;;;;9187745;19;20037;-62
2022/04/11 04:18:30;;;;;;;6.97;3.47;;;4.30;69.20;;;;;;9186714;19;20006;-62
2022/04/11 04:21:37;;;;;;;7.88;3.97;;;4.30;69.20;;;;;;9186643;19;20070;-61
2022/04/11 04:24:45;;;;;;;9.18;3.63;;;4.30;69.20;;;;;;9187242;19;20021;-62
2022/04/11 04:27:50;;;;;;;12.60;4.35;;;4.30;69.30;;;;;;9187231;19;20378;-61
2022/04/11 04:31:00;;;;;;;9.60;3.60;;;4.30;69.40;;;;;;9183528;19;20047;-61
2022/04/11 04:34:06;;;;;;;10.80;4.13;;;4.30;70.00;;;;;;9186549;19;20010;-61
2022/04/11 04:37:11;;;;;;;7.10;3.53;;;4.30;69.40;;;;;;9179038;19;20018;-61
2022/04/11 04:40:17;;;;;;;11.07;3.70;;;4.30;69.40;;;;;;9185870;19;20010;-63
2022/04/11 04:43:25;;;;;;;8.70;4.32;;;4.30;69.50;;;;;;9186034;19;20038;-61
2022/04/11 04:46:33;;;;;;;6.60;3.70;;;4.30;69.60;;;;;;9184638;19;20502;-62
2022/04/11 04:49:46;;;;;;;10.32;3.97;;;4.30;69.60;;;;;;9187143;19;20015;-61
2022/04/11 04:52:53;;;;;;;9.68;4.18;;;4.30;69.60;;;;;;9184671;19;20007;-63
2022/04/11 04:55:58;;;;;;;9.50;3.97;;;4.30;69.60;;;;;;9188560;19;20022;-62
2022/04/11 04:59:04;;;;;;;10.13;3.65;;;4.30;69.60;;;;;;9183593;19;20011;-63
2022/04/11 05:02:12;;;;;;;8.10;3.63;;;4.30;69.70;;;;;;9184257;19;20475;-64
2022/04/11 05:05:18;;;;;;;8.48;3.95;;;4.30;69.70;;;;;;9185771;19;20021;-62
2022/04/11 05:08:25;;;;;;;8.48;3.60;;;4.30;69.80;;;;;;9183212;19;20025;-63
2022/04/11 05:11:30;;;;;;;9.63;3.97;;;4.40;69.80;;;;;;9183184;19;20018;-62
2022/04/11 05:14:36;;;;;;;7.65;3.83;;;4.40;69.90;;;;;;9184635;19;20017;-62
2022/04/11 05:17:50;;;;;;;8.18;4.00;;;4.40;69.90;;;;;;9183656;19;20019;-62
2022/04/11 05:20:57;;;;;;;10.32;4.20;;;4.40;69.90;;;;;;9183806;19;20022;-61
2022/04/11 05:24:05;;;;;;;9.48;4.47;;;4.50;70.00;;;;;;9185659;19;20340;-60
2022/04/11 05:27:11;;;;;;;7.32;3.60;;;4.50;70.00;;;;;;9183414;19;20010;-61
2022/04/11 05:30:17;;;;;;;13.77;4.00;;;4.50;70.00;;;;;;9180786;19;20036;-61
2022/04/11 05:33:25;;;;;;;8.85;4.30;;;4.60;70.10;;;;;;9181497;19;20021;-63
2022/04/11 05:36:30;;;;;;;11.95;4.50;;;4.60;70.00;;;;;;9180315;19;20014;-62
2022/04/11 05:39:35;;;;;;;11.40;4.05;;;4.60;70.00;;;;;;9183861;19;20090;-60
2022/04/11 05:42:41;;;;;;;7.28;3.53;;;4.60;70.00;;;;;;9183823;19;20532;-60
2022/04/11 05:45:47;;;;;;;9.13;4.07;;;4.70;70.10;;;;;;9182566;19;20475;-61
2022/04/11 05:48:54;;;;;;;5.10;3.22;;;4.70;70.10;;;;;;9182309;19;20081;-59
2022/04/11 05:52:00;;;;;;;12.80;3.28;;;4.70;70.20;;;;;;9179114;19;20461;-61
2022/04/11 05:55:05;;;;;;;8.85;3.40;;;4.70;70.20;;;;;;9182055;19;20014;-61
2022/04/11 05:58:12;;;;;;;11.23;3.78;;;4.70;70.20;;;;;;9177778;19;20106;-62
2022/04/11 06:01:17;;;;;;;7.38;3.72;;;4.80;70.20;;;;;;9180006;19;20105;-61
2022/04/11 06:04:25;;;;;;;13.15;4.18;;;4.80;70.20;;;;;;9181679;19;20026;-63
2022/04/11 06:07:32;;;;;;;15.07;4.00;;;4.80;70.30;;;;;;9180698;19;20015;-62
2022/04/11 06:10:38;;;;;;;8.90;4.00;;;4.90;70.30;;;;;;9181537;19;20477;-62
2022/04/11 06:13:45;;;;;;;9.68;3.70;;;4.90;70.30;;;;;;9182130;19;20010;-60
2022/04/11 06:16:51;;;;;;;10.40;3.92;;;4.90;70.30;;;;;;9181363;19;20022;-61
2022/04/11 06:20:00;;;;;;;11.63;4.28;;;5.00;70.40;;;;;;9181595;19;20014;-62
2022/04/11 06:23:07;;;;;;;8.45;3.95;;;5.10;70.40;;;;;;9181721;19;20010;-61
2022/04/11 06:26:13;;;;;;;9.48;4.72;;;5.10;70.40;;;;;;9178538;19;20055;-63
2022/04/11 06:29:21;;;;;;;13.40;4.03;;;5.10;70.40;;;;;;9171664;19;20024;-64
2022/04/11 06:32:28;;;;;;;8.70;4.22;;;5.20;70.40;;;;;;9168592;19;20626;-60
2022/04/11 06:35:36;;;;;;;7.47;3.72;;;5.20;71.00;;;;;;9162278;19;20718;-62
2022/04/11 06:38:41;;;;;;;11.98;4.88;;;5.30;70.50;;;;;;9170418;19;20047;-64
2022/04/11 06:41:46;;;;;;;12.13;4.90;;;5.30;71.10;;;;;;9174061;19;20059;-62
2022/04/11 06:44:52;;;;;;;10.13;5.53;;;5.40;70.50;;;;;;9173788;19;20018;-62
2022/04/11 06:47:57;;;;;;;9.85;4.97;;;5.40;70.50;;;;;;9172085;19;20022;-63
2022/04/11 06:51:05;;;;;;;11.90;5.55;;;5.50;70.60;;;;;;9167527;19;20022;-62
2022/04/11 06:54:10;;;;;;;16.08;5.68;;;5.50;70.60;;;;;;9167194;19;20537;-66
2022/04/11 06:57:15;;;;;;;14.57;6.18;;;5.50;70.60;;;;;;9162507;19;20015;-62
2022/04/11 07:00:20;;;;;;;12.80;5.85;;;5.60;70.70;;;;;;9180196;19;20029;-63
2022/04/11 07:03:25;;;;;;;11.65;5.78;;;5.70;70.60;;;;;;9177400;19;20015;-62
2022/04/11 07:06:33;;;;;;;23.70;6.53;;;5.80;70.60;;;;;;9177617;19;20011;-61
2022/04/11 07:09:41;;;;;;;14.10;5.70;;;5.90;70.70;;;;;;9178178;19;20010;-62
2022/04/11 07:12:46;;;;;;;12.90;6.15;;;6.00;70.70;;;;;;9175121;19;20018;-62
2022/04/11 07:15:51;;;;;;;14.65;5.88;;;6.10;70.70;;;;;;9179793;19;20359;-62
2022/04/11 07:18:56;;;;;;;16.40;5.65;;;6.20;70.70;;;;;;9180044;19;20491;-63
2022/04/11 07:22:04;;;;;;;15.00;5.82;;;6.30;70.60;;;;;;9178191;19;20081;-63
2022/04/11 07:25:10;;;;;;;12.98;5.53;;;6.40;70.60;;;;;;9177410;19;20019;-61
2022/04/11 07:28:16;;;;;;;7.88;5.00;;;6.60;70.60;;;;;;9176660;19;20061;-63
2022/04/11 07:31:21;;;;;;;13.10;5.57;;;6.70;70.60;;;;;;9177978;19;20018;-62
2022/04/11 07:34:27;;;;;;;10.18;5.22;;;6.90;70.70;;;;;;9178667;19;20018;-61
2022/04/11 07:37:34;;;;;;;14.45;5.32;;;7.10;70.70;;;;;;9175796;19;20021;-63
2022/04/11 07:40:39;;;;;;;9.20;4.75;;;7.20;70.50;;;;;;9176605;19;20011;-62
2022/04/11 07:43:44;;;;;;;19.90;5.93;;;7.40;70.50;;;;;;9172528;19;20439;-63
2022/04/11 07:46:49;;;;;;;13.75;5.47;;;7.60;70.40;;;;;;9173289;19;20022;-64
2022/04/11 07:49:54;;;;;;;9.65;4.95;;;7.80;70.50;;;;;;9175380;19;20026;-65
2022/04/11 07:53:02;;;;;;;11.00;4.85;;;8.00;70.40;;;;;;9175400;19;20015;-61
2022/04/11 07:56:07;;;;;;;10.05;4.50;;;8.10;70.10;;;;;;9183391;19;20022;-62
2022/04/11 07:59:12;;;;;;;10.38;5.07;;;8.40;70.10;;;;;;9182953;19;20022;-63
2022/04/11 08:02:25;;;;;;;11.30;4.90;;;8.60;69.90;;;;;;9181812;19;20035;-62
2022/04/11 08:05:30;;;;;;;15.63;4.95;;;8.80;69.80;;;;;;9176865;19;20504;-62
2022/04/11 08:08:44;;;;;;;18.60;5.13;;;9.00;69.70;;;;;;9178038;19;20018;-62
2022/04/11 08:11:49;;;;;;;10.88;5.43;;;9.20;69.70;;;;;;9176025;19;20015;-62
2022/04/11 08:14:57;;;;;;;12.63;4.78;;;9.30;69.50;;;;;;9176418;19;20031;-62
2022/04/11 08:18:02;;;;;;;12.40;5.85;;;9.50;69.50;;;;;;9180688;19;20021;-63
2022/04/11 08:21:07;;;;;;;10.05;5.03;;;9.70;69.40;;;;;;9180635;19;20740;-62
2022/04/11 08:24:15;;;;;;;12.40;4.95;;;10.00;69.30;;;;;;9181926;19;20015;-62
2022/04/11 08:27:20;;;;;;;12.48;4.85;;;10.20;69.10;;;;;;9175684;19;20010;-62
2022/04/11 08:30:26;;;;;;;9.45;4.82;;;10.40;69.00;;;;;;9181938;19;20018;-62
2022/04/11 08:33:31;;;;;;;12.10;4.90;;;10.60;68.80;;;;;;9177459;19;20043;-62
2022/04/11 08:36:36;;;;;;;20.75;5.30;;;10.80;68.60;;;;;;9175473;19;20028;-62
2022/04/11 08:39:43;;;;;;;11.50;4.78;;;11.00;68.40;;;;;;9180010;19;20018;-65
2022/04/11 08:42:51;;;;;;;16.40;4.72;;;11.20;68.30;;;;;;9177412;19;20828;-62
2022/04/11 08:45:56;;;;;;;11.75;4.93;;;11.40;68.20;;;;;;9178535;19;20026;-62
2022/04/11 08:49:03;;;;;;;12.88;4.95;;;11.60;68.20;;;;;;9181922;19;20030;-64
2022/04/11 08:52:08;;;;;;;10.77;5.53;;;11.80;68.10;;;;;;9179519;19;20019;-64
2022/04/11 08:55:16;;;;;;;12.07;6.65;;;12.00;68.00;;;;;;9178447;19;20023;-62
2022/04/11 08:58:21;;;;;;;9.35;4.07;;;12.30;68.00;;;;;;9179804;19;20052;-62
2022/04/11 09:01:27;;;;;;;9.07;4.72;;;12.50;67.80;;;;;;9179066;19;20018;-64
2022/04/11 09:04:50;;;;;;;13.25;5.05;;;12.70;67.60;;;;;;9177454;19;20015;-62
2022/04/11 09:07:57;;;;;;;11.02;5.15;;;13.00;67.40;;;;;;9178286;19;20398;-62
2022/04/11 09:11:05;;;;;;;13.57;5.72;;;13.20;67.30;;;;;;9177621;19;20011;-63
2022/04/11 09:14:11;;;;;;;11.60;5.43;;;13.40;67.00;;;;;;9178676;19;20618;-63
2022/04/11 09:17:19;;;;;;;12.38;4.45;;;13.70;66.80;;;;;;9176188;19;20582;-64
2022/04/11 09:20:27;;;;;;;8.02;4.05;;;13.80;66.50;;;;;;9178592;19;20029;-64
2022/04/11 09:23:32;;;;;;;10.00;4.45;;;14.00;66.40;;;;;;9177737;19;20021;-62
2022/04/11 09:26:42;;;;;;;10.85;4.07;;;14.20;66.30;;;;;;9176867;19;20029;-63
2022/04/11 09:29:46;;;;;;;14.13;4.20;;;14.40;66.00;;;;;;9177225;19;20475;-64
2022/04/11 09:32:56;;;;;;;10.95;4.10;;;14.60;65.90;;;;;;9171578;19;20029;-66
2022/04/11 09:36:01;;;;;;;7.47;4.10;;;14.80;65.80;;;;;;9171903;19;20018;-65
2022/04/11 09:39:06;;;;;;;10.70;4.25;;;15.00;65.60;;;;;;9182180;19;20021;-61
2022/04/11 09:42:14;;;;;;;9.20;4.90;;;15.10;65.40;;;;;;9185499;19;20044;-62
2022/04/11 09:45:20;;;;;;;9.70;3.92;;;15.30;65.00;;;;;;9180753;19;20034;-64
2022/04/11 09:48:32;;;;;;;7.57;3.70;;;15.40;64.80;;;;;;9179694;19;20481;-63
2022/04/11 09:51:38;;;;;;;7.68;4.00;;;15.60;64.60;;;;;;9183556;19;20070;-63
2022/04/11 09:54:44;;;;;;;8.43;4.68;;;15.80;64.40;;;;;;9183254;19;20014;-63
2022/04/11 09:57:52;;;;;;;11.40;4.18;;;15.90;64.10;;;;;;9181612;19;20018;-62
2022/04/11 10:00:57;;;;;;;7.45;3.95;;;16.10;63.90;;;;;;9182031;19;20026;-62
2022/04/11 10:04:03;;;;;;;8.70;4.20;;;16.20;63.70;;;;;;9181562;19;20051;-63
2022/04/11 10:07:12;;;;;;;11.32;4.60;;;16.40;63.50;;;;;;9180681;19;20011;-63
2022/04/11 10:10:17;;;;;;;10.18;4.57;;;16.60;63.20;;;;;;9181945;19;20014;-62
2022/04/11 10:13:25;;;;;;;10.95;4.40;;;16.80;63.00;;;;;;9180264;19;20011;-63
2022/04/11 10:16:31;;;;;;;10.57;4.88;;;16.90;62.60;;;;;;9181619;19;20002;-63
2022/04/11 10:19:42;;;;;;;11.77;5.10;;;17.00;62.30;;;;;;9181512;19;20026;-62
2022/04/11 10:22:57;;;;;;;10.52;4.93;;;17.20;62.00;;;;;;9179998;19;20519;-62
2022/04/11 10:26:03;;;;;;;8.48;5.55;;;17.30;61.50;;;;;;9181602;19;20426;-62
2022/04/11 10:29:34;;;;;;;10.32;5.72;;;17.50;61.50;;;;;;9180387;19;20006;-61
2022/04/11 10:32:56;;;;;;;11.50;5.47;;;17.60;60.50;;;;;;9181787;19;20094;-65
2022/04/11 10:36:03;;;;;;;10.65;5.93;;;17.70;60.30;;;;;;9176081;19;20374;-61
2022/04/11 10:39:25;;;;;;;12.80;6.10;;;17.80;60.60;;;;;;9176576;19;20015;-62
2022/04/11 10:42:30;;;;;;;14.88;6.72;;;17.90;59.90;;;;;;9180715;19;20010;-61
2022/04/11 10:45:40;;;;;;;13.50;6.53;;;18.00;60.20;;;;;;9176593;19;20018;-63
2022/04/11 10:49:05;;;;;;;10.00;5.68;;;18.10;59.70;;;;;;9178996;19;20026;-64
2022/04/11 10:52:32;;;;;;;10.07;6.85;;;18.20;59.10;;;;;;9179434;19;20475;-61
2022/04/11 10:55:38;;;;;;;10.20;5.85;;;18.30;59.00;;;;;;9180369;19;20010;-62
2022/04/11 10:58:50;;;;;;;12.43;5.82;;;18.40;59.50;;;;;;9178015;19;20015;-64
2022/04/11 11:02:01;;;;;;;11.75;6.25;;;18.40;59.10;;;;;;9175351;19;20017;-62
2022/04/11 11:05:25;;;;;;;10.57;5.57;;;18.50;59.30;;;;;;9176773;19;20081;-62
2022/04/11 11:08:35;;;;;;;11.82;6.43;;;18.60;58.40;;;;;;9175717;19;20118;-62
2022/04/11 11:11:40;;;;;;;13.65;6.05;;;18.70;58.50;;;;;;9176047;19;20019;-67
2022/04/11 11:14:46;;;;;;;7.88;5.53;;;18.80;58.50;;;;;;9178550;19;20019;-64
2022/04/11 11:18:02;;;;;;;13.25;6.13;;;18.80;58.10;;;;;;9180281;19;20029;-64
2022/04/11 11:21:07;;;;;;;9.80;4.97;;;18.90;57.40;;;;;;9177996;19;20026;-63
2022/04/11 11:24:15;;;;;;;10.70;5.63;;;18.90;57.80;;;;;;9179024;19;20015;-63
2022/04/11 11:27:21;;;;;;;13.43;4.65;;;18.90;57.60;;;;;;9179302;19;20049;-63
2022/04/11 11:30:26;;;;;;;9.68;4.80;;;19.00;57.50;;;;;;9189196;19;20021;-61
2022/04/11 11:33:35;;;;;;;6.78;4.57;;;19.10;57.40;;;;;;9187777;19;20021;-62
2022/04/11 11:36:40;;;;;;;9.07;5.15;;;19.10;56.80;;;;;;9183833;19;20010;-60
2022/04/11 11:39:49;;;;;;;7.78;4.90;;;19.10;56.90;;;;;;9185047;19;20010;-69
2022/04/11 11:42:56;;;;;;;7.07;4.50;;;19.20;56.70;;;;;;9187828;19;20323;-62
2022/04/11 11:46:06;;;;;;;8.30;5.00;;;19.20;56.50;;;;;;9188833;19;20051;-61
2022/04/11 11:49:14;;;;;;;10.02;4.43;;;19.20;56.20;;;;;;9186065;19;20026;-62
2022/04/11 11:52:20;;;;;;;9.02;4.93;;;19.20;55.80;;;;;;9187593;19;20015;-62
2022/04/11 11:55:25;;;;;;;11.18;4.53;;;19.30;55.80;;;;;;9189568;19;20022;-62
2022/04/11 11:58:39;;;;;;;12.07;4.65;;;19.30;55.70;;;;;;9187330;19;20010;-65
2022/04/11 12:04:18;;;;;;;6.85;4.78;;;19.20;55.10;;;;;;9186100;19;20015;-63
2022/04/11 12:05:21;;;;;;;11.63;4.00;;;19.30;55.20;;;;;;9185864;19;20018;-67
2022/04/11 12:08:30;;;;;;;10.05;4.68;;;19.30;55.10;;;;;;9186600;19;20022;-62
2022/04/11 12:11:35;;;;;;;7.65;4.22;;;19.30;55.00;;;;;;9183257;19;20078;-62
2022/04/11 12:15:03;;;;;;;10.10;4.13;;;19.30;54.80;;;;;;9181702;19;20026;-62
2022/04/11 12:18:10;;;;;;;7.60;4.60;;;19.30;54.00;;;;;;9187149;19;20585;-62
2022/04/11 12:21:18;;;;;;;9.75;3.95;;;19.30;54.50;;;;;;9187000;19;20014;-62
2022/04/11 12:24:33;;;;;;;11.90;4.30;;;19.20;54.10;;;;;;9183933;19;20645;-61
2022/04/11 12:27:40;;;;;;;8.57;4.15;;;19.20;54.10;;;;;;9184658;19;20026;-62
2022/04/11 12:30:48;;;;;;;9.80;3.97;;;19.20;54.00;;;;;;9184773;19;20050;-64
2022/04/11 12:33:55;;;;;;;7.10;4.10;;;19.20;53.90;;;;;;9183433;19;20010;-60
2022/04/11 12:37:05;;;;;;;8.18;4.78;;;19.20;54.00;;;;;;9181874;19;20095;-62
2022/04/11 12:40:11;;;;;;;9.98;4.05;;;19.10;53.60;;;;;;9184752;19;20007;-62
2022/04/11 12:43:16;;;;;;;12.95;4.68;;;19.10;53.80;;;;;;9187038;19;20029;-62
2022/04/11 12:46:26;;;;;;;9.75;4.00;;;19.10;53.60;;;;;;9186265;19;20025;-63
2022/04/11 12:49:45;;;;;;;9.02;4.22;;;19.10;53.20;;;;;;9184858;19;20047;-64
2022/04/11 12:52:53;;;;;;;7.93;4.47;;;19.20;52.80;;;;;;9183311;19;20029;-63
2022/04/11 12:56:10;;;;;;;12.68;4.72;;;19.20;53.10;;;;;;9184351;19;20033;-62
2022/04/11 12:59:30;;;;;;;7.28;3.92;;;19.20;52.70;;;;;;9181856;19;20036;-61
2022/04/11 13:02:35;;;;;;;10.20;4.47;;;19.20;52.60;;;;;;9183114;19;20026;-62
2022/04/11 13:05:41;;;;;;;7.95;4.15;;;19.20;53.10;;;;;;9184452;19;20018;-63
2022/04/11 13:08:48;;;;;;;9.10;3.90;;;19.30;53.00;;;;;;9180542;19;20018;-61
2022/04/11 13:11:55;;;;;;;8.95;4.15;;;19.30;52.50;;;;;;9181995;19;20011;-64
2022/04/11 13:15:11;;;;;;;10.40;4.35;;;19.30;52.50;;;;;;9181900;19;20014;-63
2022/04/11 13:18:26;;;;;;;7.38;3.75;;;19.20;52.30;;;;;;9182193;19;20007;-62
2022/04/11 13:21:31;;;;;;;9.00;3.88;;;19.20;52.20;;;;;;9183774;19;20510;-64
2022/04/11 13:24:41;;;;;;;10.00;4.15;;;19.20;52.10;;;;;;9182834;19;20022;-61
2022/04/11 13:27:46;;;;;;;9.20;3.72;;;19.20;52.00;;;;;;9182921;19;20475;-61
2022/04/11 13:30:51;;;;;;;8.52;4.40;;;19.10;52.10;;;;;;9184333;19;20037;-62
2022/04/11 13:34:00;;;;;;;6.88;3.85;;;19.10;52.00;;;;;;9181800;19;20099;-62
2022/04/11 13:37:05;;;;;;;7.93;3.80;;;19.10;51.70;;;;;;9179468;19;20014;-62
2022/04/11 13:40:32;;;;;;;9.20;4.78;;;19.10;51.70;;;;;;9183794;19;20447;-64
2022/04/11 13:43:38;;;;;;;10.20;5.20;;;19.10;51.60;;;;;;9184892;19;20010;-62
2022/04/11 13:46:47;;;;;;;8.73;4.38;;;19.00;51.60;;;;;;9182959;19;20018;-61
2022/04/11 13:49:52;;;;;;;9.88;4.38;;;19.00;51.60;;;;;;9183192;19;20341;-62
2022/04/11 13:52:57;;;;;;;9.43;5.07;;;18.90;51.60;;;;;;9182260;19;20015;-62
2022/04/11 13:56:06;;;;;;;8.27;4.15;;;18.90;51.50;;;;;;9180591;19;20015;-61
2022/04/11 13:59:12;;;;;;;8.73;3.83;;;18.90;51.30;;;;;;9182692;19;20029;-61
2022/04/11 14:02:17;;;;;;;7.13;3.75;;;18.90;51.40;;;;;;9183673;19;20026;-63
2022/04/11 14:05:23;;;;;;;11.35;4.80;;;18.90;51.30;;;;;;9181854;19;20010;-61
2022/04/11 14:08:28;;;;;;;10.88;4.93;;;18.90;51.30;;;;;;9179599;19;20483;-62
2022/04/11 14:11:37;;;;;;;8.63;4.47;;;18.80;51.20;;;;;;9181498;19;20018;-62
2022/04/11 14:14:42;;;;;;;9.23;3.95;;;18.80;51.00;;;;;;9181562;19;20013;-61
2022/04/11 14:17:47;;;;;;;7.65;3.75;;;18.80;51.10;;;;;;9181327;19;20467;-63
2022/04/11 14:20:52;;;;;;;6.82;3.80;;;18.80;50.90;;;;;;9181267;19;20018;-64
2022/04/11 14:23:58;;;;;;;11.50;4.38;;;18.70;50.80;;;;;;9182314;19;20910;-62
2022/04/11 14:27:06;;;;;;;10.38;4.55;;;18.70;50.90;;;;;;9180543;19;20101;-60
2022/04/11 14:30:11;;;;;;;8.40;4.38;;;18.60;50.80;;;;;;9181771;19;20109;-61
2022/04/11 14:33:16;;;;;;;8.45;4.47;;;18.60;50.90;;;;;;9182235;19;20360;-63
2022/04/11 14:36:24;;;;;;;8.63;4.72;;;18.60;50.90;;;;;;9174531;19;20010;-61
2022/04/11 14:39:49;;;;;;;6.88;4.60;;;18.50;50.70;;;;;;9182563;19;20344;-61
2022/04/11 14:42:59;;;;;;;11.35;5.70;;;18.50;50.90;;;;;;9180118;19;20014;-63
2022/04/11 14:46:04;;;;;;;11.68;4.75;;;18.50;50.80;;;;;;9180862;19;20367;-62
2022/04/11 14:49:10;;;;;;;7.22;4.93;;;18.40;50.80;;;;;;9179783;19;20069;-62
2022/04/11 14:52:35;;;;;;;14.25;5.28;;;18.30;50.70;;;;;;9180708;19;20015;-63
2022/04/11 14:55:41;;;;;;;8.85;5.20;;;18.20;50.80;;;;;;9176832;19;20111;-62
2022/04/11 14:58:49;;;;;;;8.63;5.03;;;18.20;50.80;;;;;;9177576;19;20014;-61
2022/04/11 15:01:54;;;;;;;8.40;5.50;;;18.20;50.60;;;;;;9179105;19;20079;-64
2022/04/11 15:04:59;;;;;;;11.65;5.30;;;18.10;50.70;;;;;;9188153;19;20022;-62
2022/04/11 15:08:10;;;;;;;11.07;5.50;;;18.00;50.70;;;;;;9188790;19;20468;-61
2022/04/11 15:11:15;;;;;;;10.15;5.25;;;18.00;50.70;;;;;;9188331;19;20368;-62
2022/04/11 15:14:24;;;;;;;11.82;5.57;;;17.90;50.80;;;;;;9190019;19;20043;-61
2022/04/11 15:17:29;;;;;;;15.93;5.95;;;17.90;50.70;;;;;;9180115;19;20033;-63
2022/04/11 15:20:34;;;;;;;11.15;5.88;;;17.80;50.80;;;;;;9184075;19;20055;-62
2022/04/11 15:23:39;;;;;;;12.57;5.35;;;17.80;50.80;;;;;;9178120;19;20475;-63
2022/04/11 15:26:48;;;;;;;10.00;5.32;;;17.70;50.80;;;;;;9174753;19;20018;-63
2022/04/11 15:29:56;;;;;;;11.02;5.10;;;17.60;50.80;;;;;;9178412;19;20019;-63
2022/04/11 15:33:01;;;;;;;8.80;5.00;;;17.60;50.70;;;;;;9179312;19;20018;-61
2022/04/11 15:36:07;;;;;;;10.43;4.60;;;17.60;50.80;;;;;;9181046;19;20017;-64
2022/04/11 15:39:12;;;;;;;10.95;4.93;;;17.50;51.40;;;;;;9186658;19;20018;-63
2022/04/11 15:42:17;;;;;;;11.52;5.38;;;17.50;50.90;;;;;;9187040;19;20011;-63
2022/04/11 15:45:28;;;;;;;10.88;5.38;;;17.50;50.80;;;;;;9186402;19;20018;-66
2022/04/11 15:48:35;;;;;;;10.68;4.80;;;17.40;50.60;;;;;;9183909;19;20025;-61
2022/04/11 15:51:40;;;;;;;16.77;5.32;;;17.30;50.70;;;;;;9176009;19;20022;-63
2022/04/11 15:54:45;;;;;;;33.30;12.25;;;17.30;50.70;;;;;;9179357;19;20090;-63
2022/04/11 15:57:53;;;;;;;21.65;7.22;;;17.20;50.70;;;;;;9184061;19;20021;-61
2022/04/11 16:01:00;;;;;;;8.27;4.70;;;17.20;50.70;;;;;;9180790;19;20022;-64
2022/04/11 16:04:13;;;;;;;13.10;5.50;;;17.10;50.50;;;;;;9183287;19;20608;-62
2022/04/11 16:07:18;;;;;;;8.68;4.97;;;17.00;50.60;;;;;;9179871;19;20668;-63
2022/04/11 16:10:23;;;;;;;10.45;5.18;;;17.00;50.60;;;;;;9181818;19;20857;-64
2022/04/11 16:13:28;;;;;;;11.20;5.82;;;16.90;50.60;;;;;;9177942;19;20027;-65
2022/04/11 16:16:36;;;;;;;14.98;5.95;;;16.90;50.60;;;;;;9175631;19;20022;-65
2022/04/11 16:19:41;;;;;;;12.02;5.95;;;16.80;50.40;;;;;;9177056;19;20006;-62